LAO weather

Laoag International Airport
Laoag City, Ilocos Norte Province, Philippines

Public forecast

Using degrees Celsius for public forecast. Weather courtesy of forecast.io.

Current aviation weather report (METAR) for Laoag International Airport

Retrieved 2019/10/23 04:00 UTC (54 minutes ago):

RPLI 230400Z 30007KT 270V340 9999 FEW018 30/24 Q1009 NOSIG RMK A2980

Aviation forecast (TAF) for Laoag International Airport

Retrieved 2019-10-23 00:00 UTC (5 hours ago):

TAF RPLI 222300Z 2300/2324 11006KT 9999 FEW018 TEMPO 2303/2309 32010KT